createdAt,value
2019-04-25T00:02:15.690Z,78.95
2019-04-25T00:04:42.609Z,78.60
2019-04-25T00:07:09.556Z,78.89
2019-04-25T00:09:44.052Z,78.49
2019-04-25T00:12:10.402Z,78.90
2019-04-25T00:14:36.426Z,78.68
2019-04-25T00:17:02.769Z,78.38
2019-04-25T00:19:28.894Z,78.17
2019-04-25T00:27:18.653Z,77.51
2019-04-25T00:29:45.735Z,77.30
2019-04-25T00:32:12.148Z,77.33
2019-04-25T00:34:38.301Z,77.17
2019-04-25T00:37:05.464Z,77.04
2019-04-25T00:39:32.023Z,77.07
2019-04-25T00:41:59.407Z,77.04
2019-04-25T00:44:25.472Z,77.28
2019-04-25T00:46:56.535Z,78.15
2019-04-25T00:49:19.769Z,78.20
2019-04-25T00:51:46.145Z,78.28
2019-04-25T00:54:12.402Z,78.15
2019-04-25T00:56:38.645Z,78.29
2019-04-25T00:59:15.851Z,78.76
2019-04-25T01:01:53.258Z,79.17
2019-04-25T01:04:22.055Z,79.51
2019-04-25T01:06:48.194Z,79.46
2019-04-25T01:09:16.220Z,80.14
2019-04-25T01:11:42.531Z,80.42
2019-04-25T01:14:08.653Z,80.14
2019-04-25T01:16:34.728Z,80.08
2019-04-25T01:19:00.892Z,79.98
2019-04-25T01:21:27.139Z,80.75
2019-04-25T01:23:54.447Z,80.87
2019-04-25T01:26:20.807Z,81.02
2019-04-25T01:28:47.651Z,81.24
2019-04-25T01:31:15.859Z,81.74
2019-04-25T01:33:43.318Z,82.06
2019-04-25T01:39:34.254Z,81.98
2019-04-25T01:42:19.120Z,81.41
2019-04-25T01:44:50.256Z,80.94
2019-04-25T01:47:16.386Z,80.46
2019-04-25T01:49:43.927Z,80.23
2019-04-25T01:52:10.472Z,79.67
2019-04-25T01:54:36.607Z,79.39
2019-04-25T01:57:04.305Z,79.40
2019-04-25T01:59:30.726Z,79.14
2019-04-25T02:01:56.976Z,79.26
2019-04-25T02:04:23.224Z,79.02
2019-04-25T02:06:49.346Z,79.07
2019-04-25T02:09:16.974Z,78.97
2019-04-25T02:11:45.049Z,78.84
2019-04-25T02:14:11.198Z,78.54
2019-04-25T02:16:37.331Z,78.27
2019-04-25T02:19:04.139Z,78.12
2019-04-25T02:21:30.421Z,77.99
2019-04-25T02:23:56.693Z,78.10
2019-04-25T02:26:24.094Z,77.93
2019-04-25T02:28:50.350Z,78.45
2019-04-25T02:31:18.376Z,78.59
2019-04-25T02:33:44.729Z,78.43
2019-04-25T02:36:10.908Z,78.51
2019-04-25T02:38:37.654Z,78.26
2019-04-25T02:41:08.368Z,78.18
2019-04-25T02:43:31.832Z,78.38
2019-04-25T02:46:16.301Z,78.15
2019-04-25T02:49:01.361Z,78.16
2019-04-25T02:51:29.121Z,77.93
2019-04-25T02:53:57.896Z,77.75
2019-04-25T02:56:31.212Z,77.86
2019-04-25T02:58:54.268Z,77.99
2019-04-25T03:01:25.672Z,78.48
2019-04-25T03:03:49.659Z,78.71
2019-04-25T03:06:15.806Z,78.36
2019-04-25T03:08:42.241Z,78.05
2019-04-25T03:11:09.344Z,78.19
2019-04-25T03:13:35.852Z,78.27
2019-04-25T03:16:03.365Z,78.90
2019-04-25T03:18:31.993Z,79.38
2019-04-25T03:21:01.298Z,79.62
2019-04-25T03:23:34.995Z,79.69
2019-04-25T03:26:01.021Z,79.70
2019-04-25T03:28:27.969Z,79.71
2019-04-25T03:30:54.938Z,79.75
2019-04-25T03:33:22.109Z,79.58
2019-04-25T03:35:48.163Z,79.77
2019-04-25T03:38:14.533Z,79.52
2019-04-25T03:40:40.740Z,79.17
2019-04-25T03:43:07.089Z,79.19
2019-04-25T03:45:33.339Z,79.45
2019-04-25T03:47:59.391Z,79.65
2019-04-25T03:50:25.521Z,79.47
2019-04-25T03:52:51.643Z,80.72
2019-04-25T03:55:17.770Z,80.53
2019-04-25T03:57:44.327Z,80.42
2019-04-25T04:00:11.107Z,80.67
2019-04-25T04:02:37.236Z,81.23
2019-04-25T04:05:06.885Z,81.05
2019-04-25T04:07:33.692Z,80.97
2019-04-25T04:10:00.045Z,80.87
2019-04-25T04:12:26.124Z,80.55
2019-04-25T04:14:53.627Z,80.41
2019-04-25T04:17:24.876Z,80.84
2019-04-25T04:20:01.725Z,81.25
2019-04-25T04:22:34.051Z,82.10
2019-04-25T04:25:01.655Z,83.89
2019-04-25T04:27:27.878Z,83.68
2019-04-25T04:29:54.343Z,83.21
2019-04-25T04:32:20.669Z,83.51
2019-04-25T04:34:46.732Z,83.65
2019-04-25T04:37:14.627Z,83.80
2019-04-25T04:39:40.779Z,83.75
2019-04-25T04:42:07.693Z,83.88
2019-04-25T04:44:34.465Z,83.81
2019-04-25T04:47:00.511Z,83.84
2019-04-25T04:49:26.654Z,83.81
2019-04-25T04:51:54.145Z,83.93
2019-04-25T04:54:20.341Z,83.85
2019-04-25T04:56:46.399Z,83.72
2019-04-25T04:59:14.322Z,83.22
2019-04-25T05:01:58.756Z,83.24
2019-04-25T05:07:41.341Z,82.57
2019-04-25T05:10:07.995Z,82.46
2019-04-25T05:12:34.134Z,82.06
2019-04-25T05:15:00.294Z,81.72
2019-04-25T05:17:26.513Z,81.90
2019-04-25T05:19:53.304Z,82.29
2019-04-25T05:22:20.367Z,81.90
2019-04-25T05:24:46.597Z,81.55
2019-04-25T05:27:15.107Z,81.28
2019-04-25T05:29:40.798Z,80.49
2019-04-25T05:32:06.823Z,79.99
2019-04-25T05:34:34.469Z,78.94
2019-04-25T05:37:00.679Z,78.46
2019-04-25T05:39:26.847Z,78.97
2019-04-25T05:41:57.373Z,78.97
2019-04-25T05:44:26.374Z,78.46
2019-04-25T05:46:51.668Z,78.65
2019-04-25T05:49:19.752Z,78.01
2019-04-25T05:51:46.994Z,77.75
2019-04-25T05:54:14.106Z,77.21
2019-04-25T05:56:43.823Z,77.06
2019-04-25T05:59:10.144Z,77.40
2019-04-25T06:01:36.344Z,76.60
2019-04-25T06:04:03.672Z,76.26
2019-04-25T06:06:30.767Z,75.17
2019-04-25T06:08:58.818Z,75.62
2019-04-25T06:11:33.676Z,75.25
2019-04-25T06:14:02.978Z,75.29
2019-04-25T06:16:33.222Z,74.74
2019-04-25T06:19:14.176Z,74.32
2019-04-25T06:21:38.183Z,74.49
2019-04-25T06:24:15.512Z,73.85
2019-04-25T06:29:31.353Z,71.82
2019-04-25T06:32:05.706Z,71.77
2019-04-25T06:34:28.391Z,71.72
2019-04-25T06:36:53.714Z,71.83
2019-04-25T06:39:20.411Z,71.91
2019-04-25T06:41:46.570Z,72.22
2019-04-25T06:44:14.605Z,72.30
2019-04-25T06:46:51.683Z,71.34
2019-04-25T06:51:58.248Z,71.40
2019-04-25T06:54:25.785Z,70.73
2019-04-25T06:56:53.530Z,70.73
2019-04-25T06:59:19.848Z,70.62
2019-04-25T07:01:46.623Z,69.75
2019-04-25T07:04:14.055Z,69.09
2019-04-25T07:06:40.521Z,68.88
2019-04-25T07:09:08.450Z,69.08
2019-04-25T07:11:35.774Z,68.90
2019-04-25T07:14:02.186Z,68.86
2019-04-25T07:16:29.433Z,68.73
2019-04-25T07:18:55.720Z,67.96
2019-04-25T07:21:24.012Z,68.01
2019-04-25T07:23:50.143Z,68.02
2019-04-25T07:26:28.212Z,67.88
2019-04-25T07:29:00.617Z,67.99
2019-04-25T07:31:44.297Z,67.81
2019-04-25T07:34:15.316Z,67.03
2019-04-25T07:36:41.631Z,67.48
2019-04-25T07:39:10.575Z,67.03
2019-04-25T07:41:44.049Z,67.25
2019-04-25T07:44:10.503Z,67.21
2019-04-25T07:46:39.918Z,67.66
2019-04-25T07:49:06.538Z,67.56
2019-04-25T07:51:34.308Z,67.75
2019-04-25T07:54:00.855Z,67.59
2019-04-25T07:56:27.789Z,67.50
2019-04-25T07:58:54.847Z,67.95
2019-04-25T08:01:21.237Z,67.08
2019-04-25T08:03:47.493Z,66.24
2019-04-25T08:06:13.931Z,65.84
2019-04-25T08:08:40.294Z,65.94
2019-04-25T08:11:07.816Z,65.25
2019-04-25T08:13:36.340Z,64.71
2019-04-25T08:16:04.601Z,65.19
2019-04-25T08:18:30.856Z,65.22
2019-04-25T08:20:57.287Z,64.69
2019-04-25T08:23:24.003Z,65.07
2019-04-25T08:25:50.237Z,65.20
2019-04-25T08:28:16.356Z,64.89
2019-04-25T08:30:43.663Z,65.15
2019-04-25T08:33:10.018Z,63.87
2019-04-25T08:35:36.541Z,63.41
2019-04-25T08:38:03.397Z,63.20
2019-04-25T08:40:31.651Z,64.00
2019-04-25T08:42:58.796Z,63.40
2019-04-25T08:45:25.809Z,63.37
2019-04-25T08:47:53.664Z,63.22
2019-04-25T08:50:28.983Z,62.88
2019-04-25T08:52:50.189Z,62.86
2019-04-25T08:55:36.136Z,62.59
2019-04-25T08:58:05.068Z,62.89
2019-04-25T09:00:35.547Z,62.69
2019-04-25T09:03:03.886Z,62.38
2019-04-25T09:05:37.408Z,60.96
2019-04-25T09:08:04.249Z,60.29
2019-04-25T09:10:30.451Z,60.60
2019-04-25T09:12:56.551Z,59.91
2019-04-25T09:15:24.130Z,60.07
2019-04-25T09:17:50.580Z,60.18
2019-04-25T09:20:17.681Z,60.56
2019-04-25T09:22:44.594Z,60.46
2019-04-25T09:25:13.656Z,58.87
2019-04-25T09:27:40.920Z,57.45
2019-04-25T09:30:08.774Z,58.28
2019-04-25T09:32:35.664Z,58.36
2019-04-25T09:35:03.824Z,56.90
2019-04-25T09:37:30.064Z,56.89
2019-04-25T09:39:58.129Z,57.76
2019-04-25T09:42:24.391Z,58.02
2019-04-25T09:45:09.019Z,57.19
2019-04-25T09:47:37.141Z,56.78
2019-04-25T09:50:06.258Z,56.57
2019-04-25T09:52:33.948Z,56.20
2019-04-25T09:55:04.757Z,55.72
2019-04-25T09:57:43.440Z,56.37
2019-04-25T10:00:15.368Z,56.24
2019-04-25T10:02:42.283Z,55.27
2019-04-25T10:05:08.856Z,55.93
2019-04-25T10:07:35.163Z,55.53
2019-04-25T10:10:01.573Z,55.78
2019-04-25T10:12:27.845Z,55.84
2019-04-25T10:15:06.932Z,55.00
2019-04-25T10:17:33.789Z,55.65
2019-04-25T10:20:00.190Z,55.29
2019-04-25T10:22:27.690Z,55.42
2019-04-25T10:25:00.368Z,55.85
2019-04-25T10:27:22.141Z,55.88
2019-04-25T10:29:53.661Z,54.76
2019-04-25T10:32:18.573Z,55.32
2019-04-25T10:34:46.096Z,55.92
2019-04-25T10:37:13.869Z,55.32
2019-04-25T10:39:40.176Z,55.07
2019-04-25T10:42:06.408Z,55.57
2019-04-25T10:44:33.886Z,54.74
2019-04-25T10:47:00.426Z,54.74
2019-04-25T10:49:26.675Z,53.81
2019-04-25T10:51:52.825Z,52.58
2019-04-25T10:54:19.063Z,51.67
2019-04-25T10:56:47.076Z,52.05
2019-04-25T10:59:14.437Z,51.63
2019-04-25T11:01:41.240Z,51.82
2019-04-25T11:04:09.418Z,50.75
2019-04-25T11:06:35.735Z,50.84
2019-04-25T11:09:03.481Z,50.92
2019-04-25T11:11:34.131Z,50.80
2019-04-25T11:14:00.436Z,49.76
2019-04-25T11:16:26.742Z,50.80
2019-04-25T11:18:54.704Z,51.09
2019-04-25T11:21:21.161Z,50.57
2019-04-25T11:23:48.851Z,50.49
2019-04-25T11:26:15.514Z,50.81
2019-04-25T11:28:45.244Z,50.21
2019-04-25T11:31:13.978Z,50.36
2019-04-25T11:33:40.571Z,50.36
2019-04-25T11:36:06.858Z,49.97
2019-04-25T11:38:34.949Z,49.94
2019-04-25T11:41:11.851Z,50.39
2019-04-25T11:43:38.396Z,50.92
2019-04-25T11:46:04.971Z,50.04
2019-04-25T11:48:31.302Z,50.22
2019-04-25T11:50:57.545Z,50.21
2019-04-25T11:53:25.019Z,50.11
2019-04-25T11:55:52.038Z,49.70
2019-04-25T11:58:19.715Z,50.14
2019-04-25T12:00:47.478Z,49.88
2019-04-25T12:03:13.693Z,49.78
2019-04-25T12:05:39.817Z,49.48
2019-04-25T12:08:06.263Z,49.40
2019-04-25T12:10:34.694Z,49.32
2019-04-25T12:13:01.171Z,50.18
2019-04-25T12:15:28.133Z,48.65
2019-04-25T12:17:54.763Z,47.83
2019-04-25T12:20:22.493Z,49.13
2019-04-25T12:22:48.641Z,49.17
2019-04-25T12:25:15.037Z,47.97
2019-04-25T12:27:41.521Z,48.20
2019-04-25T12:30:08.053Z,48.27
2019-04-25T12:32:35.232Z,47.67
2019-04-25T12:35:04.113Z,45.59
2019-04-25T12:37:30.902Z,46.16
2019-04-25T12:39:57.172Z,46.43
2019-04-25T12:42:24.200Z,46.58
2019-04-25T12:44:56.077Z,46.92
2019-04-25T12:47:24.294Z,46.43
2019-04-25T12:49:50.698Z,46.06
2019-04-25T12:52:17.026Z,44.59
2019-04-25T12:54:44.076Z,45.22
2019-04-25T12:57:12.194Z,45.32
2019-04-25T12:59:38.460Z,44.18
2019-04-25T13:02:04.733Z,43.59
2019-04-25T13:04:31.012Z,43.71
2019-04-25T13:06:57.850Z,44.29
2019-04-25T13:09:24.241Z,44.10
2019-04-25T13:11:50.525Z,43.71
2019-04-25T13:14:17.557Z,43.38
2019-04-25T13:16:44.372Z,42.87
2019-04-25T13:19:20.281Z,43.31
2019-04-25T13:21:39.938Z,43.28
2019-04-25T13:24:06.195Z,43.26
2019-04-25T13:26:34.283Z,43.59
2019-04-25T13:29:04.076Z,43.00
2019-04-25T13:31:48.725Z,42.20
2019-04-25T13:34:19.380Z,41.55
2019-04-25T13:36:45.633Z,41.89
2019-04-25T13:39:15.068Z,42.35
2019-04-25T13:41:43.042Z,42.35
2019-04-25T13:44:10.071Z,42.64
2019-04-25T13:46:36.801Z,41.94
2019-04-25T13:49:04.239Z,42.53
2019-04-25T13:51:33.360Z,42.29
2019-04-25T13:53:59.613Z,42.23
2019-04-25T13:56:27.431Z,42.26
2019-04-25T13:58:55.888Z,42.49
2019-04-25T14:01:23.023Z,41.96
2019-04-25T14:03:50.286Z,42.34
2019-04-25T14:06:16.531Z,42.23
2019-04-25T14:08:43.488Z,42.50
2019-04-25T14:11:10.066Z,42.30
2019-04-25T14:13:36.331Z,42.58
2019-04-25T14:16:04.438Z,42.51
2019-04-25T14:18:41.460Z,43.00
2019-04-25T14:21:20.809Z,42.65
2019-04-25T14:23:48.081Z,42.48
2019-04-25T14:26:16.108Z,43.33
2019-04-25T14:28:44.275Z,43.25
2019-04-25T14:31:13.148Z,43.11
2019-04-25T14:33:40.580Z,43.53
2019-04-25T14:36:07.825Z,43.57
2019-04-25T14:38:35.390Z,43.43
2019-04-25T14:41:01.931Z,43.29
2019-04-25T14:43:28.794Z,43.16
2019-04-25T14:45:56.406Z,43.25
2019-04-25T14:48:23.593Z,42.87
2019-04-25T14:50:49.841Z,43.00
2019-04-25T14:53:16.020Z,43.36
2019-04-25T14:55:55.885Z,43.55
2019-04-25T14:58:24.003Z,43.78
2019-04-25T15:00:51.275Z,43.64
2019-04-25T15:03:17.532Z,43.48
2019-04-25T15:05:43.763Z,43.42
2019-04-25T15:08:10.177Z,43.49
2019-04-25T15:10:36.383Z,43.29
2019-04-25T15:13:03.932Z,43.47
2019-04-25T15:15:30.199Z,43.26
2019-04-25T15:17:56.459Z,43.32
2019-04-25T15:20:22.738Z,43.24
2019-04-25T15:22:48.995Z,43.18
2019-04-25T15:25:15.286Z,43.17
2019-04-25T15:27:41.604Z,43.44
2019-04-25T15:30:09.882Z,43.40
2019-04-25T15:32:37.436Z,43.64
2019-04-25T15:35:07.046Z,43.84
2019-04-25T15:37:40.991Z,43.88
2019-04-25T15:42:52.954Z,43.62
2019-04-25T15:45:26.977Z,43.59
2019-04-25T15:47:53.682Z,43.98
2019-04-25T15:50:19.911Z,43.65
2019-04-25T15:52:46.189Z,43.90
2019-04-25T15:55:12.449Z,44.11
2019-04-25T15:57:38.718Z,44.09
2019-04-25T16:00:07.436Z,44.12
2019-04-25T16:02:37.559Z,44.21
2019-04-25T16:05:07.215Z,44.24
2019-04-25T16:07:33.814Z,44.34
2019-04-25T16:10:00.259Z,44.60
2019-04-25T16:12:27.601Z,44.34
2019-04-25T16:14:53.970Z,44.30
2019-04-25T16:17:20.235Z,44.31
2019-04-25T16:19:46.534Z,44.62
2019-04-25T16:22:12.902Z,44.46
2019-04-25T16:24:39.175Z,44.42
2019-04-25T16:27:05.906Z,44.65
2019-04-25T16:29:33.248Z,44.55
2019-04-25T16:32:00.867Z,44.40
2019-04-25T16:34:27.133Z,44.60
2019-04-25T16:36:54.680Z,44.75
2019-04-25T16:39:27.127Z,44.50
2019-04-25T16:41:53.448Z,45.04
2019-04-25T16:44:21.674Z,45.13
2019-04-25T16:46:48.081Z,45.37
2019-04-25T16:49:14.379Z,45.43
2019-04-25T16:51:40.750Z,45.32
2019-04-25T16:54:06.996Z,45.59
2019-04-25T16:56:33.231Z,45.48
2019-04-25T16:58:59.548Z,45.62
2019-04-25T17:01:25.805Z,45.92
2019-04-25T17:03:52.061Z,46.07
2019-04-25T17:06:18.320Z,46.50
2019-04-25T17:08:44.544Z,46.45
2019-04-25T17:11:11.756Z,46.80
2019-04-25T17:13:39.810Z,46.95
2019-04-25T17:16:07.904Z,47.23
2019-04-25T17:18:36.282Z,47.59
2019-04-25T17:21:04.305Z,47.45
2019-04-25T17:23:31.177Z,47.71
2019-04-25T17:25:57.590Z,47.99
2019-04-25T17:28:23.941Z,47.71
2019-04-25T17:30:52.085Z,47.85
2019-04-25T17:33:36.494Z,48.19
2019-04-25T17:36:20.950Z,48.38
2019-04-25T17:38:48.998Z,48.68
2019-04-25T17:41:15.281Z,48.69
2019-04-25T17:43:41.860Z,49.06
2019-04-25T17:46:11.020Z,49.28
2019-04-25T17:48:38.264Z,49.32
2019-04-25T17:51:04.580Z,49.66
2019-04-25T17:53:30.818Z,49.89
2019-04-25T17:55:57.062Z,50.13
2019-04-25T17:58:25.109Z,50.12
2019-04-25T18:00:51.532Z,50.46
2019-04-25T18:03:18.230Z,50.71
2019-04-25T18:05:44.354Z,51.32
2019-04-25T18:08:10.756Z,51.80
2019-04-25T18:10:37.719Z,52.35
2019-04-25T18:13:05.038Z,52.50
2019-04-25T18:15:33.059Z,52.96
2019-04-25T18:18:01.418Z,53.18
2019-04-25T18:20:29.486Z,53.70
2019-04-25T18:23:00.374Z,53.84
2019-04-25T18:28:20.258Z,54.84
2019-04-25T18:30:47.474Z,55.04
2019-04-25T18:33:18.204Z,55.32
2019-04-25T18:35:45.948Z,55.45
2019-04-25T18:38:20.082Z,55.96
2019-04-25T18:40:50.873Z,56.15
2019-04-25T18:43:22.718Z,56.17
2019-04-25T18:45:50.799Z,56.25
2019-04-25T18:48:16.948Z,56.42
2019-04-25T18:50:43.205Z,57.42
2019-04-25T18:53:11.708Z,57.58
2019-04-25T18:55:40.898Z,57.53
2019-04-25T18:58:14.739Z,57.49
2019-04-25T19:00:45.839Z,57.62
2019-04-25T19:03:26.200Z,57.54
2019-04-25T19:06:00.304Z,57.86
2019-04-25T19:08:26.587Z,58.11
2019-04-25T19:10:53.107Z,58.18
2019-04-25T19:13:19.443Z,58.44
2019-04-25T19:15:45.794Z,58.33
2019-04-25T19:18:12.051Z,58.82
2019-04-25T19:20:38.979Z,59.20
2019-04-25T19:23:06.475Z,59.26
2019-04-25T19:28:07.793Z,59.57
2019-04-25T19:30:34.062Z,59.81
2019-04-25T19:33:00.308Z,60.02
2019-04-25T19:35:28.530Z,59.89
2019-04-25T19:38:54.455Z,60.38
2019-04-25T19:41:21.588Z,60.52
2019-04-25T19:43:49.674Z,60.73
2019-04-25T19:46:15.913Z,60.83
2019-04-25T19:48:42.914Z,60.91
2019-04-25T19:51:09.233Z,61.27
2019-04-25T19:53:35.463Z,61.54
2019-04-25T19:56:01.625Z,61.47
2019-04-25T19:58:27.745Z,61.75
2019-04-25T20:00:54.638Z,61.85
2019-04-25T20:03:49.245Z,61.74
2019-04-25T20:06:14.919Z,62.10
2019-04-25T20:08:43.931Z,62.89
2019-04-25T20:11:19.163Z,63.35
2019-04-25T20:13:45.478Z,63.43
2019-04-25T20:16:12.449Z,63.53
2019-04-25T20:18:38.757Z,63.62
2019-04-25T20:21:04.996Z,63.53
2019-04-25T20:23:50.873Z,63.34
2019-04-25T20:26:17.567Z,63.31
2019-04-25T20:28:44.880Z,63.37
2019-04-25T20:31:11.206Z,63.54
2019-04-25T20:33:37.393Z,63.57
2019-04-25T20:36:17.523Z,63.54
2019-04-25T20:38:42.459Z,63.93
2019-04-25T20:41:08.681Z,63.95
2019-04-25T20:43:34.970Z,64.05
2019-04-25T20:46:01.378Z,64.87
2019-04-25T20:48:27.529Z,64.98
2019-04-25T20:50:54.529Z,65.10
2019-04-25T20:53:22.714Z,65.06
2019-04-25T20:55:48.819Z,64.88
2019-04-25T20:58:15.003Z,64.92
2019-04-25T21:00:44.520Z,65.21
2019-04-25T21:03:12.579Z,65.34
2019-04-25T21:05:38.953Z,65.25
2019-04-25T21:08:08.209Z,65.21
2019-04-25T21:10:34.296Z,65.34
2019-04-25T21:13:01.940Z,65.63
2019-04-25T21:15:32.838Z,65.78
2019-04-25T21:18:03.583Z,66.32
2019-04-25T21:20:29.724Z,66.76
2019-04-25T21:22:57.886Z,66.51
2019-04-25T21:25:24.092Z,66.43
2019-04-25T21:27:51.221Z,66.47
2019-04-25T21:30:19.021Z,66.56
2019-04-25T21:32:53.319Z,66.79
2019-04-25T21:35:20.414Z,66.94
2019-04-25T21:37:46.605Z,67.01
2019-04-25T21:40:21.219Z,66.86
2019-04-25T21:42:49.698Z,66.97
2019-04-25T21:45:19.355Z,67.33
2019-04-25T22:40:13.629Z,68.50
2019-04-25T22:42:39.952Z,68.54
2019-04-25T22:45:06.242Z,68.62
2019-04-25T22:47:32.546Z,68.78
2019-04-25T22:49:58.922Z,69.32
2019-04-25T22:52:25.526Z,69.63
2019-04-25T22:54:51.779Z,69.87
2019-04-25T22:57:18.452Z,69.91
2019-04-25T22:59:45.017Z,69.78
2019-04-25T23:07:56.650Z,69.61
2019-04-25T23:10:23.113Z,69.88
2019-04-25T23:12:49.370Z,69.74
2019-04-25T23:15:15.641Z,69.93
2019-04-25T23:17:41.835Z,70.16
2019-04-25T23:20:08.400Z,69.77
2019-04-25T23:22:34.636Z,69.92
2019-04-25T23:25:03.428Z,70.02
2019-04-25T23:27:49.502Z,70.26
2019-04-25T23:30:17.878Z,70.14
2019-04-25T23:32:44.095Z,70.25
2019-04-25T23:35:23.481Z,70.08
2019-04-25T23:37:38.507Z,70.08
2019-04-25T23:40:05.158Z,70.14
2019-04-25T23:42:32.556Z,69.97
2019-04-25T23:44:59.075Z,70.62
2019-04-25T23:47:25.365Z,70.39
2019-04-25T23:49:51.623Z,70.23
2019-04-25T23:52:18.099Z,70.36
2019-04-25T23:54:44.342Z,70.27
2019-04-25T23:57:11.237Z,70.23
2019-04-25T23:59:37.563Z,70.49
